sensor_id;sensor_type;location;lat;lon;timestamp;noise_LAeq;noise_LA_min;noise_LA_max;noise_LA01;noise_LA95
67314;Laerm;57663;51.436;5.978;2022-08-14T00:00:08;41.32;38.69;48.66;;
67314;Laerm;57663;51.436;5.978;2022-08-14T00:00:19;43.12;39.46;49.38;;
67314;Laerm;57663;51.436;5.978;2022-08-14T00:00:29;41.69;38.51;48.98;;
67314;Laerm;57663;51.436;5.978;2022-08-14T00:00:40;42.45;38.25;50.63;;
67314;Laerm;57663;51.436;5.978;2022-08-14T00:00:50;40.99;38.60;46.45;;
67314;Laerm;57663;51.436;5.978;2022-08-14T00:01:01;40.88;38.68;46.51;;
67314;Laerm;57663;51.436;5.978;2022-08-14T00:01:15;45.14;39.35;53.96;;
67314;Laerm;57663;51.436;5.978;2022-08-14T00:01:25;41.49;38.40;47.68;;
67314;Laerm;57663;51.436;5.978;2022-08-14T00:01:36;41.04;38.41;53.48;;
67314;Laerm;57663;51.436;5.978;2022-08-14T00:01:46;41.14;38.69;51.15;;
67314;Laerm;57663;51.436;5.978;2022-08-14T00:01:57;41.06;38.76;46.18;;
67314;Laerm;57663;51.436;5.978;2022-08-14T00:02:08;41.56;38.18;52.55;;
67314;Laerm;57663;51.436;5.978;2022-08-14T00:02:18;41.14;38.40;47.07;;
67314;Laerm;57663;51.436;5.978;2022-08-14T00:02:29;41.23;38.85;46.93;;
67314;Laerm;57663;51.436;5.978;2022-08-14T00:02:39;42.36;38.48;50.25;;
67314;Laerm;57663;51.436;5.978;2022-08-14T00:02:50;40.14;38.57;44.92;;
67314;Laerm;57663;51.436;5.978;2022-08-14T00:03:00;39.84;37.69;43.58;;
67314;Laerm;57663;51.436;5.978;2022-08-14T00:03:20;41.45;38.73;53.79;;
67314;Laerm;57663;51.436;5.978;2022-08-14T00:03:31;41.07;38.36;47.54;;
67314;Laerm;57663;51.436;5.978;2022-08-14T00:03:42;41.94;38.53;48.77;;
67314;Laerm;57663;51.436;5.978;2022-08-14T00:03:52;40.50;38.19;45.77;;
67314;Laerm;57663;51.436;5.978;2022-08-14T00:04:02;44.00;38.70;56.96;;
67314;Laerm;57663;51.436;5.978;2022-08-14T00:04:13;40.56;38.68;43.71;;
67314;Laerm;57663;51.436;5.978;2022-08-14T00:04:23;40.65;38.39;49.02;;
67314;Laerm;57663;51.436;5.978;2022-08-14T00:04:34;40.94;38.54;46.24;;
67314;Laerm;57663;51.436;5.978;2022-08-14T00:04:45;40.79;38.66;49.15;;
67314;Laerm;57663;51.436;5.978;2022-08-14T00:04:55;40.33;38.23;43.98;;
67314;Laerm;57663;51.436;5.978;2022-08-14T00:05:09;41.23;38.82;47.70;;
67314;Laerm;57663;51.436;5.978;2022-08-14T00:05:20;41.54;38.35;55.35;;
67314;Laerm;57663;51.436;5.978;2022-08-14T00:05:31;40.29;38.50;43.44;;
67314;Laerm;57663;51.436;5.978;2022-08-14T00:05:41;40.87;38.65;44.34;;
67314;Laerm;57663;51.436;5.978;2022-08-14T00:05:52;41.00;38.58;45.83;;
67314;Laerm;57663;51.436;5.978;2022-08-14T00:06:03;40.96;38.32;45.10;;
67314;Laerm;57663;51.436;5.978;2022-08-14T00:06:13;40.28;38.54;42.22;;
67314;Laerm;57663;51.436;5.978;2022-08-14T00:06:23;40.24;38.75;42.61;;
67314;Laerm;57663;51.436;5.978;2022-08-14T00:06:34;42.28;38.55;50.97;;
67314;Laerm;57663;51.436;5.978;2022-08-14T00:06:53;41.37;38.46;51.32;;
67314;Laerm;57663;51.436;5.978;2022-08-14T00:07:04;40.38;38.64;43.41;;
67314;Laerm;57663;51.436;5.978;2022-08-14T00:07:14;42.58;38.93;50.69;;
67314;Laerm;57663;51.436;5.978;2022-08-14T00:07:26;40.28;38.81;46.19;;
67314;Laerm;57663;51.436;5.978;2022-08-14T00:07:36;40.99;38.57;47.39;;
67314;Laerm;57663;51.436;5.978;2022-08-14T00:07:47;45.11;38.23;53.48;;
67314;Laerm;57663;51.436;5.978;2022-08-14T00:07:58;43.82;39.18;52.43;;
67314;Laerm;57663;51.436;5.978;2022-08-14T00:08:08;42.86;39.12;49.89;;
67314;Laerm;57663;51.436;5.978;2022-08-14T00:08:19;44.37;38.96;53.38;;
67314;Laerm;57663;51.436;5.978;2022-08-14T00:08:29;43.42;38.70;54.78;;
67314;Laerm;57663;51.436;5.978;2022-08-14T00:08:40;42.19;38.92;49.04;;
67314;Laerm;57663;51.436;5.978;2022-08-14T00:08:50;40.88;38.51;45.50;;
67314;Laerm;57663;51.436;5.978;2022-08-14T00:09:00;44.45;39.03;52.85;;
67314;Laerm;57663;51.436;5.978;2022-08-14T00:09:11;43.67;39.29;51.81;;
67314;Laerm;57663;51.436;5.978;2022-08-14T00:09:21;42.37;39.22;51.87;;
67314;Laerm;57663;51.436;5.978;2022-08-14T00:09:33;55.37;41.11;66.68;;
67314;Laerm;57663;51.436;5.978;2022-08-14T00:09:44;44.36;40.25;49.70;;
67314;Laerm;57663;51.436;5.978;2022-08-14T00:09:54;42.39;39.21;50.08;;
67314;Laerm;57663;51.436;5.978;2022-08-14T00:10:06;43.33;39.13;52.32;;
67314;Laerm;57663;51.436;5.978;2022-08-14T00:10:18;42.78;38.80;54.66;;
67314;Laerm;57663;51.436;5.978;2022-08-14T00:10:28;40.91;38.90;44.85;;
67314;Laerm;57663;51.436;5.978;2022-08-14T00:10:39;42.64;38.86;49.15;;
67314;Laerm;57663;51.436;5.978;2022-08-14T00:10:49;43.06;38.85;52.53;;
67314;Laerm;57663;51.436;5.978;2022-08-14T00:10:59;41.42;38.79;46.83;;
67314;Laerm;57663;51.436;5.978;2022-08-14T00:11:10;42.31;38.77;48.92;;
67314;Laerm;57663;51.436;5.978;2022-08-14T00:11:20;46.59;39.69;51.62;;
67314;Laerm;57663;51.436;5.978;2022-08-14T00:11:31;53.09;45.66;61.85;;
67314;Laerm;57663;51.436;5.978;2022-08-14T00:11:41;48.41;44.21;54.06;;
67314;Laerm;57663;51.436;5.978;2022-08-14T00:11:51;47.23;44.66;52.17;;
67314;Laerm;57663;51.436;5.978;2022-08-14T00:12:02;47.05;44.01;53.18;;
67314;Laerm;57663;51.436;5.978;2022-08-14T00:12:14;54.75;44.70;65.87;;
67314;Laerm;57663;51.436;5.978;2022-08-14T00:12:24;58.65;44.64;68.05;;
67314;Laerm;57663;51.436;5.978;2022-08-14T00:12:37;53.58;44.68;63.33;;
67314;Laerm;57663;51.436;5.978;2022-08-14T00:12:49;48.59;44.76;58.15;;
67314;Laerm;57663;51.436;5.978;2022-08-14T00:13:00;47.23;44.65;53.66;;
67314;Laerm;57663;51.436;5.978;2022-08-14T00:13:10;47.74;44.82;54.37;;
67314;Laerm;57663;51.436;5.978;2022-08-14T00:13:24;49.63;45.38;56.54;;
67314;Laerm;57663;51.436;5.978;2022-08-14T00:13:38;52.59;44.06;64.83;;
67314;Laerm;57663;51.436;5.978;2022-08-14T00:13:48;47.20;44.35;55.39;;
67314;Laerm;57663;51.436;5.978;2022-08-14T00:13:59;55.37;44.25;71.88;;
67314;Laerm;57663;51.436;5.978;2022-08-14T00:14:10;47.15;44.19;51.34;;
67314;Laerm;57663;51.436;5.978;2022-08-14T00:14:24;48.16;44.49;57.46;;
67314;Laerm;57663;51.436;5.978;2022-08-14T00:14:37;58.62;45.27;67.45;;
67314;Laerm;57663;51.436;5.978;2022-08-14T00:14:47;67.38;47.29;74.60;;
67314;Laerm;57663;51.436;5.978;2022-08-14T00:14:58;45.76;41.76;50.58;;
67314;Laerm;57663;51.436;5.978;2022-08-14T00:15:15;49.23;41.20;54.84;;
67314;Laerm;57663;51.436;5.978;2022-08-14T00:15:28;52.77;39.74;65.71;;
67314;Laerm;57663;51.436;5.978;2022-08-14T00:15:41;44.56;39.40;53.84;;
67314;Laerm;57663;51.436;5.978;2022-08-14T00:15:52;41.93;39.25;53.78;;
67314;Laerm;57663;51.436;5.978;2022-08-14T00:16:02;41.48;38.83;48.61;;
67314;Laerm;57663;51.436;5.978;2022-08-14T00:16:13;41.67;39.05;46.33;;
67314;Laerm;57663;51.436;5.978;2022-08-14T00:16:23;47.01;39.02;58.09;;
67314;Laerm;57663;51.436;5.978;2022-08-14T00:16:34;41.85;39.13;48.21;;
67314;Laerm;57663;51.436;5.978;2022-08-14T00:16:47;40.66;38.70;46.52;;
67314;Laerm;57663;51.436;5.978;2022-08-14T00:16:59;42.43;39.22;50.21;;
67314;Laerm;57663;51.436;5.978;2022-08-14T00:17:10;41.78;39.45;46.94;;
67314;Laerm;57663;51.436;5.978;2022-08-14T00:17:20;45.30;40.81;49.92;;
67314;Laerm;57663;51.436;5.978;2022-08-14T00:17:33;46.24;40.62;53.26;;
67314;Laerm;57663;51.436;5.978;2022-08-14T00:17:44;43.30;39.49;53.48;;
67314;Laerm;57663;51.436;5.978;2022-08-14T00:17:55;44.25;39.07;54.57;;
67314;Laerm;57663;51.436;5.978;2022-08-14T00:18:05;43.65;40.34;52.94;;
67314;Laerm;57663;51.436;5.978;2022-08-14T00:18:18;49.38;40.79;60.13;;
67314;Laerm;57663;51.436;5.978;2022-08-14T00:18:29;41.64;38.97;47.69;;
67314;Laerm;57663;51.436;5.978;2022-08-14T00:18:39;40.98;39.37;46.03;;
67314;Laerm;57663;51.436;5.978;2022-08-14T00:18:50;41.42;39.09;47.72;;
67314;Laerm;57663;51.436;5.978;2022-08-14T00:19:00;41.40;39.54;45.79;;
67314;Laerm;57663;51.436;5.978;2022-08-14T00:19:11;42.08;38.92;48.43;;
67314;Laerm;57663;51.436;5.978;2022-08-14T00:19:22;49.44;40.08;59.15;;
67314;Laerm;57663;51.436;5.978;2022-08-14T00:19:32;41.75;39.36;47.08;;
67314;Laerm;57663;51.436;5.978;2022-08-14T00:19:43;40.64;38.54;45.74;;
67314;Laerm;57663;51.436;5.978;2022-08-14T00:19:53;40.97;38.94;46.65;;
67314;Laerm;57663;51.436;5.978;2022-08-14T00:20:04;41.29;38.98;46.19;;
67314;Laerm;57663;51.436;5.978;2022-08-14T00:20:16;42.59;39.19;53.76;;
67314;Laerm;57663;51.436;5.978;2022-08-14T00:20:28;42.99;39.01;51.99;;
67314;Laerm;57663;51.436;5.978;2022-08-14T00:20:41;42.47;38.83;53.98;;
67314;Laerm;57663;51.436;5.978;2022-08-14T00:20:52;41.22;38.80;45.97;;
67314;Laerm;57663;51.436;5.978;2022-08-14T00:21:03;41.89;38.95;46.28;;
67314;Laerm;57663;51.436;5.978;2022-08-14T00:21:13;41.78;38.95;49.48;;
67314;Laerm;57663;51.436;5.978;2022-08-14T00:21:24;41.17;39.10;46.07;;
67314;Laerm;57663;51.436;5.978;2022-08-14T00:21:34;41.68;38.92;51.43;;
67314;Laerm;57663;51.436;5.978;2022-08-14T00:21:46;42.65;39.01;50.64;;
67314;Laerm;57663;51.436;5.978;2022-08-14T00:21:57;40.90;39.01;44.86;;
67314;Laerm;57663;51.436;5.978;2022-08-14T00:22:07;41.44;38.90;49.43;;
67314;Laerm;57663;51.436;5.978;2022-08-14T00:22:18;41.38;38.92;47.85;;
67314;Laerm;57663;51.436;5.978;2022-08-14T00:22:29;46.30;39.08;58.21;;
67314;Laerm;57663;51.436;5.978;2022-08-14T00:22:40;42.83;39.08;49.04;;
67314;Laerm;57663;51.436;5.978;2022-08-14T00:22:51;41.62;38.90;48.25;;
67314;Laerm;57663;51.436;5.978;2022-08-14T00:23:02;43.21;39.33;52.02;;
67314;Laerm;57663;51.436;5.978;2022-08-14T00:23:13;49.77;38.52;60.81;;
67314;Laerm;57663;51.436;5.978;2022-08-14T00:23:24;42.39;38.65;50.58;;
67314;Laerm;57663;51.436;5.978;2022-08-14T00:23:34;42.80;39.09;51.69;;
67314;Laerm;57663;51.436;5.978;2022-08-14T00:23:45;40.97;38.90;46.18;;
67314;Laerm;57663;51.436;5.978;2022-08-14T00:23:55;41.00;38.56;46.14;;
67314;Laerm;57663;51.436;5.978;2022-08-14T00:24:06;40.98;38.45;47.70;;
67314;Laerm;57663;51.436;5.978;2022-08-14T00:24:19;40.38;38.48;44.89;;
67314;Laerm;57663;51.436;5.978;2022-08-14T00:24:30;42.25;38.25;50.03;;
67314;Laerm;57663;51.436;5.978;2022-08-14T00:24:40;42.96;38.94;56.13;;
67314;Laerm;57663;51.436;5.978;2022-08-14T00:24:51;40.51;38.61;43.95;;
67314;Laerm;57663;51.436;5.978;2022-08-14T00:25:01;40.06;38.42;43.72;;
67314;Laerm;57663;51.436;5.978;2022-08-14T00:25:12;42.34;38.32;51.00;;
67314;Laerm;57663;51.436;5.978;2022-08-14T00:25:22;40.40;38.32;44.63;;
67314;Laerm;57663;51.436;5.978;2022-08-14T00:25:32;42.02;38.57;47.90;;
67314;Laerm;57663;51.436;5.978;2022-08-14T00:25:48;40.24;38.54;43.61;;
67314;Laerm;57663;51.436;5.978;2022-08-14T00:25:58;41.28;38.85;47.31;;
67314;Laerm;57663;51.436;5.978;2022-08-14T00:26:09;40.38;38.59;46.47;;
67314;Laerm;57663;51.436;5.978;2022-08-14T00:26:19;40.80;38.82;48.39;;
67314;Laerm;57663;51.436;5.978;2022-08-14T00:26:30;40.84;38.01;47.30;;
67314;Laerm;57663;51.436;5.978;2022-08-14T00:26:40;40.74;38.64;48.55;;
67314;Laerm;57663;51.436;5.978;2022-08-14T00:26:50;42.30;39.00;48.61;;
67314;Laerm;57663;51.436;5.978;2022-08-14T00:27:02;40.56;38.72;45.14;;
67314;Laerm;57663;51.436;5.978;2022-08-14T00:27:13;40.60;38.58;47.53;;
67314;Laerm;57663;51.436;5.978;2022-08-14T00:27:23;42.13;38.86;48.50;;
67314;Laerm;57663;51.436;5.978;2022-08-14T00:27:33;41.04;38.39;49.41;;
67314;Laerm;57663;51.436;5.978;2022-08-14T00:27:44;41.80;38.67;47.16;;
67314;Laerm;57663;51.436;5.978;2022-08-14T00:27:54;45.17;38.66;56.76;;
67314;Laerm;57663;51.436;5.978;2022-08-14T00:28:06;43.90;38.92;55.71;;
67314;Laerm;57663;51.436;5.978;2022-08-14T00:28:19;41.62;38.61;50.23;;
67314;Laerm;57663;51.436;5.978;2022-08-14T00:28:35;41.92;38.82;49.89;;
67314;Laerm;57663;51.436;5.978;2022-08-14T00:28:45;40.91;38.74;46.85;;
67314;Laerm;57663;51.436;5.978;2022-08-14T00:28:55;40.94;38.82;46.58;;
67314;Laerm;57663;51.436;5.978;2022-08-14T00:29:06;41.57;39.03;45.86;;
67314;Laerm;57663;51.436;5.978;2022-08-14T00:29:16;41.27;38.81;48.18;;
67314;Laerm;57663;51.436;5.978;2022-08-14T00:29:26;41.22;38.75;47.94;;
67314;Laerm;57663;51.436;5.978;2022-08-14T00:29:38;41.05;38.45;46.25;;
67314;Laerm;57663;51.436;5.978;2022-08-14T00:29:50;40.94;38.71;47.93;;
67314;Laerm;57663;51.436;5.978;2022-08-14T00:30:03;40.55;38.17;47.29;;
67314;Laerm;57663;51.436;5.978;2022-08-14T00:30:14;40.47;38.35;46.22;;
67314;Laerm;57663;51.436;5.978;2022-08-14T00:30:24;40.97;38.41;48.25;;
67314;Laerm;57663;51.436;5.978;2022-08-14T00:30:35;40.24;38.64;44.19;;
67314;Laerm;57663;51.436;5.978;2022-08-14T00:30:45;40.97;38.87;48.14;;
67314;Laerm;57663;51.436;5.978;2022-08-14T00:30:56;44.80;38.77;55.82;;
67314;Laerm;57663;51.436;5.978;2022-08-14T00:31:08;43.76;38.93;52.34;;
67314;Laerm;57663;51.436;5.978;2022-08-14T00:31:19;41.02;38.23;48.81;;
67314;Laerm;57663;51.436;5.978;2022-08-14T00:31:30;41.59;38.88;50.42;;
67314;Laerm;57663;51.436;5.978;2022-08-14T00:31:40;42.36;38.71;52.25;;
67314;Laerm;57663;51.436;5.978;2022-08-14T00:31:51;41.39;38.64;50.35;;
67314;Laerm;57663;51.436;5.978;2022-08-14T00:32:01;42.52;38.96;48.47;;
67314;Laerm;57663;51.436;5.978;2022-08-14T00:32:12;40.62;38.74;46.96;;
67314;Laerm;57663;51.436;5.978;2022-08-14T00:32:22;40.35;38.53;44.81;;
67314;Laerm;57663;51.436;5.978;2022-08-14T00:32:33;40.43;38.85;45.35;;
67314;Laerm;57663;51.436;5.978;2022-08-14T00:32:44;40.46;38.94;43.48;;
67314;Laerm;57663;51.436;5.978;2022-08-14T00:32:54;40.35;38.83;43.88;;
67314;Laerm;57663;51.436;5.978;2022-08-14T00:33:05;40.31;38.59;44.78;;
67314;Laerm;57663;51.436;5.978;2022-08-14T00:33:15;41.17;38.72;48.50;;
67314;Laerm;57663;51.436;5.978;2022-08-14T00:33:26;41.32;38.28;46.52;;
67314;Laerm;57663;51.436;5.978;2022-08-14T00:33:36;43.78;38.94;52.54;;
67314;Laerm;57663;51.436;5.978;2022-08-14T00:33:47;41.09;38.65;47.80;;
67314;Laerm;57663;51.436;5.978;2022-08-14T00:33:57;40.92;38.33;47.72;;
67314;Laerm;57663;51.436;5.978;2022-08-14T00:34:08;41.04;38.85;46.31;;
67314;Laerm;57663;51.436;5.978;2022-08-14T00:34:18;41.09;38.86;47.70;;
67314;Laerm;57663;51.436;5.978;2022-08-14T00:34:28;41.66;38.79;50.64;;
67314;Laerm;57663;51.436;5.978;2022-08-14T00:34:39;42.93;39.02;52.08;;
67314;Laerm;57663;51.436;5.978;2022-08-14T00:34:49;40.88;38.51;47.82;;
67314;Laerm;57663;51.436;5.978;2022-08-14T00:34:59;45.85;38.76;55.48;;
67314;Laerm;57663;51.436;5.978;2022-08-14T00:35:10;43.69;39.58;49.63;;
67314;Laerm;57663;51.436;5.978;2022-08-14T00:35:21;40.45;38.59;46.36;;
67314;Laerm;57663;51.436;5.978;2022-08-14T00:35:32;41.15;38.80;47.71;;
67314;Laerm;57663;51.436;5.978;2022-08-14T00:35:43;40.54;38.11;45.40;;
67314;Laerm;57663;51.436;5.978;2022-08-14T00:35:53;40.93;38.71;47.93;;
67314;Laerm;57663;51.436;5.978;2022-08-14T00:36:04;40.63;38.68;47.80;;
67314;Laerm;57663;51.436;5.978;2022-08-14T00:36:14;41.41;38.93;46.74;;
67314;Laerm;57663;51.436;5.978;2022-08-14T00:36:25;41.56;38.65;46.52;;
67314;Laerm;57663;51.436;5.978;2022-08-14T00:36:35;40.70;38.35;45.01;;
67314;Laerm;57663;51.436;5.978;2022-08-14T00:36:45;41.68;39.02;50.54;;
67314;Laerm;57663;51.436;5.978;2022-08-14T00:36:55;41.35;38.55;50.34;;
67314;Laerm;57663;51.436;5.978;2022-08-14T00:37:06;40.66;38.55;47.74;;
67314;Laerm;57663;51.436;5.978;2022-08-14T00:37:16;40.54;38.51;46.92;;
67314;Laerm;57663;51.436;5.978;2022-08-14T00:37:27;40.24;38.39;43.60;;
67314;Laerm;57663;51.436;5.978;2022-08-14T00:37:38;41.61;38.96;48.89;;
67314;Laerm;57663;51.436;5.978;2022-08-14T00:37:49;40.62;38.62;47.64;;
67314;Laerm;57663;51.436;5.978;2022-08-14T00:37:59;40.09;38.32;42.39;;
67314;Laerm;57663;51.436;5.978;2022-08-14T00:38:10;40.93;38.73;45.35;;
67314;Laerm;57663;51.436;5.978;2022-08-14T00:38:20;41.06;38.58;46.81;;
67314;Laerm;57663;51.436;5.978;2022-08-14T00:38:31;41.50;38.60;50.70;;
67314;Laerm;57663;51.436;5.978;2022-08-14T00:38:41;40.49;38.63;44.72;;
67314;Laerm;57663;51.436;5.978;2022-08-14T00:38:52;40.75;38.63;45.21;;
67314;Laerm;57663;51.436;5.978;2022-08-14T00:39:02;41.28;38.65;47.27;;
67314;Laerm;57663;51.436;5.978;2022-08-14T00:39:13;42.85;38.60;52.90;;
67314;Laerm;57663;51.436;5.978;2022-08-14T00:39:24;42.46;38.86;50.31;;
67314;Laerm;57663;51.436;5.978;2022-08-14T00:39:34;42.22;39.04;49.74;;
67314;Laerm;57663;51.436;5.978;2022-08-14T00:39:44;42.02;38.69;48.74;;
67314;Laerm;57663;51.436;5.978;2022-08-14T00:39:55;40.58;38.68;48.39;;
67314;Laerm;57663;51.436;5.978;2022-08-14T00:40:05;40.81;38.27;48.67;;
67314;Laerm;57663;51.436;5.978;2022-08-14T00:40:17;41.28;38.98;48.17;;
67314;Laerm;57663;51.436;5.978;2022-08-14T00:40:28;40.34;38.50;43.01;;
67314;Laerm;57663;51.436;5.978;2022-08-14T00:40:38;40.61;38.81;47.12;;
67314;Laerm;57663;51.436;5.978;2022-08-14T00:40:49;40.27;38.64;44.44;;
67314;Laerm;57663;51.436;5.978;2022-08-14T00:40:59;40.68;38.41;46.67;;
67314;Laerm;57663;51.436;5.978;2022-08-14T00:41:10;41.19;38.47;46.71;;
67314;Laerm;57663;51.436;5.978;2022-08-14T00:41:20;41.70;39.13;47.43;;
67314;Laerm;57663;51.436;5.978;2022-08-14T00:41:31;45.47;38.87;56.78;;
67314;Laerm;57663;51.436;5.978;2022-08-14T00:41:41;41.46;38.49;49.26;;
67314;Laerm;57663;51.436;5.978;2022-08-14T00:41:52;40.83;38.27;45.92;;
67314;Laerm;57663;51.436;5.978;2022-08-14T00:42:03;41.68;38.04;51.07;;
67314;Laerm;57663;51.436;5.978;2022-08-14T00:42:17;43.31;38.20;50.55;;
67314;Laerm;57663;51.436;5.978;2022-08-14T00:42:27;42.18;38.64;50.34;;
67314;Laerm;57663;51.436;5.978;2022-08-14T00:42:39;39.75;38.21;41.58;;
67314;Laerm;57663;51.436;5.978;2022-08-14T00:42:51;40.11;38.36;45.46;;
67314;Laerm;57663;51.436;5.978;2022-08-14T00:43:01;39.74;38.24;43.87;;
67314;Laerm;57663;51.436;5.978;2022-08-14T00:43:12;40.08;38.26;42.70;;
67314;Laerm;57663;51.436;5.978;2022-08-14T00:43:24;40.82;38.59;51.90;;
67314;Laerm;57663;51.436;5.978;2022-08-14T00:43:35;41.06;38.24;49.82;;
67314;Laerm;57663;51.436;5.978;2022-08-14T00:43:45;40.15;38.59;44.07;;
67314;Laerm;57663;51.436;5.978;2022-08-14T00:43:55;40.32;38.50;43.92;;
67314;Laerm;57663;51.436;5.978;2022-08-14T00:44:06;41.65;39.38;47.40;;
67314;Laerm;57663;51.436;5.978;2022-08-14T00:44:16;47.92;42.00;56.86;;
67314;Laerm;57663;51.436;5.978;2022-08-14T00:44:26;55.87;48.29;62.71;;
67314;Laerm;57663;51.436;5.978;2022-08-14T00:44:39;50.79;39.67;61.08;;
67314;Laerm;57663;51.436;5.978;2022-08-14T00:44:49;42.10;39.17;47.78;;
67314;Laerm;57663;51.436;5.978;2022-08-14T00:44:59;40.47;38.65;43.85;;
67314;Laerm;57663;51.436;5.978;2022-08-14T00:45:11;40.12;38.62;43.22;;
67314;Laerm;57663;51.436;5.978;2022-08-14T00:45:21;40.30;38.67;44.97;;
67314;Laerm;57663;51.436;5.978;2022-08-14T00:45:32;40.82;38.84;51.58;;
67314;Laerm;57663;51.436;5.978;2022-08-14T00:45:42;41.42;38.48;49.33;;
67314;Laerm;57663;51.436;5.978;2022-08-14T00:45:53;40.24;38.21;44.40;;
67314;Laerm;57663;51.436;5.978;2022-08-14T00:46:04;40.72;38.64;44.74;;
67314;Laerm;57663;51.436;5.978;2022-08-14T00:46:15;39.95;38.45;42.60;;
67314;Laerm;57663;51.436;5.978;2022-08-14T00:46:25;40.08;38.44;42.88;;
67314;Laerm;57663;51.436;5.978;2022-08-14T00:46:36;40.01;38.44;42.51;;
67314;Laerm;57663;51.436;5.978;2022-08-14T00:46:47;42.34;38.67;52.83;;
67314;Laerm;57663;51.436;5.978;2022-08-14T00:47:01;42.33;38.91;53.37;;
67314;Laerm;57663;51.436;5.978;2022-08-14T00:47:15;40.67;38.22;52.54;;
67314;Laerm;57663;51.436;5.978;2022-08-14T00:47:26;40.78;38.33;46.15;;
67314;Laerm;57663;51.436;5.978;2022-08-14T00:47:36;40.79;38.36;45.41;;
67314;Laerm;57663;51.436;5.978;2022-08-14T00:47:47;40.57;38.58;48.02;;
67314;Laerm;57663;51.436;5.978;2022-08-14T00:47:57;40.21;38.55;44.05;;
67314;Laerm;57663;51.436;5.978;2022-08-14T00:48:08;40.04;38.10;44.83;;
67314;Laerm;57663;51.436;5.978;2022-08-14T00:48:19;42.70;38.63;50.93;;
67314;Laerm;57663;51.436;5.978;2022-08-14T00:48:29;40.82;38.44;50.59;;
67314;Laerm;57663;51.436;5.978;2022-08-14T00:48:40;41.52;38.29;51.96;;
67314;Laerm;57663;51.436;5.978;2022-08-14T00:48:51;40.59;38.40;50.12;;
67314;Laerm;57663;51.436;5.978;2022-08-14T00:49:01;39.70;38.53;41.15;;
67314;Laerm;57663;51.436;5.978;2022-08-14T00:49:11;39.82;38.86;41.37;;
67314;Laerm;57663;51.436;5.978;2022-08-14T00:49:22;39.63;38.37;41.30;;
67314;Laerm;57663;51.436;5.978;2022-08-14T00:49:32;43.85;38.95;50.91;;
67314;Laerm;57663;51.436;5.978;2022-08-14T00:49:43;46.49;38.85;55.31;;
67314;Laerm;57663;51.436;5.978;2022-08-14T00:49:53;39.73;38.15;41.10;;
67314;Laerm;57663;51.436;5.978;2022-08-14T00:50:06;39.80;38.35;41.75;;
67314;Laerm;57663;51.436;5.978;2022-08-14T00:50:18;39.65;38.31;40.90;;
67314;Laerm;57663;51.436;5.978;2022-08-14T00:50:31;39.65;38.16;45.36;;
67314;Laerm;57663;51.436;5.978;2022-08-14T00:50:42;40.01;37.94;44.54;;
67314;Laerm;57663;51.436;5.978;2022-08-14T00:50:52;39.79;38.49;42.23;;
67314;Laerm;57663;51.436;5.978;2022-08-14T00:51:04;39.78;38.25;41.04;;
67314;Laerm;57663;51.436;5.978;2022-08-14T00:51:15;40.12;37.96;45.60;;
67314;Laerm;57663;51.436;5.978;2022-08-14T00:51:26;40.42;38.13;46.69;;
67314;Laerm;57663;51.436;5.978;2022-08-14T00:51:38;39.84;38.52;44.07;;
67314;Laerm;57663;51.436;5.978;2022-08-14T00:51:49;39.93;38.31;42.99;;
67314;Laerm;57663;51.436;5.978;2022-08-14T00:52:00;39.79;38.54;45.58;;
67314;Laerm;57663;51.436;5.978;2022-08-14T00:52:14;39.89;38.45;42.55;;
67314;Laerm;57663;51.436;5.978;2022-08-14T00:52:25;39.86;38.46;44.28;;
67314;Laerm;57663;51.436;5.978;2022-08-14T00:52:36;39.82;38.16;41.90;;
67314;Laerm;57663;51.436;5.978;2022-08-14T00:52:47;39.92;38.53;49.13;;
67314;Laerm;57663;51.436;5.978;2022-08-14T00:53:01;39.86;38.24;44.93;;
67314;Laerm;57663;51.436;5.978;2022-08-14T00:53:13;40.04;38.63;42.93;;
67314;Laerm;57663;51.436;5.978;2022-08-14T00:53:25;40.57;38.25;45.84;;
67314;Laerm;57663;51.436;5.978;2022-08-14T00:53:36;41.30;38.74;47.53;;
67314;Laerm;57663;51.436;5.978;2022-08-14T00:53:47;40.26;38.88;42.49;;
67314;Laerm;57663;51.436;5.978;2022-08-14T00:53:59;40.05;38.69;43.15;;
67314;Laerm;57663;51.436;5.978;2022-08-14T00:54:11;40.16;38.41;42.47;;
67314;Laerm;57663;51.436;5.978;2022-08-14T00:54:22;40.81;38.80;47.40;;
67314;Laerm;57663;51.436;5.978;2022-08-14T00:54:33;40.51;38.84;45.92;;
67314;Laerm;57663;51.436;5.978;2022-08-14T00:54:43;39.86;38.58;44.74;;
67314;Laerm;57663;51.436;5.978;2022-08-14T00:54:54;40.79;38.48;47.08;;
67314;Laerm;57663;51.436;5.978;2022-08-14T00:55:06;40.81;38.84;51.58;;
67314;Laerm;57663;51.436;5.978;2022-08-14T00:55:17;44.11;40.20;53.97;;
67314;Laerm;57663;51.436;5.978;2022-08-14T00:55:29;41.52;38.79;49.39;;
67314;Laerm;57663;51.436;5.978;2022-08-14T00:55:40;40.35;38.75;46.34;;
67314;Laerm;57663;51.436;5.978;2022-08-14T00:55:52;40.22;38.99;41.62;;
67314;Laerm;57663;51.436;5.978;2022-08-14T00:56:04;41.88;39.17;47.77;;
67314;Laerm;57663;51.436;5.978;2022-08-14T00:56:16;42.53;39.47;53.24;;
67314;Laerm;57663;51.436;5.978;2022-08-14T00:56:28;42.20;38.86;51.48;;
67314;Laerm;57663;51.436;5.978;2022-08-14T00:56:38;40.72;38.75;44.82;;
67314;Laerm;57663;51.436;5.978;2022-08-14T00:56:49;39.63;38.39;41.68;;
67314;Laerm;57663;51.436;5.978;2022-08-14T00:57:01;40.62;38.47;47.13;;
67314;Laerm;57663;51.436;5.978;2022-08-14T00:57:11;40.82;38.90;52.13;;
67314;Laerm;57663;51.436;5.978;2022-08-14T00:57:22;40.13;38.39;44.36;;
67314;Laerm;57663;51.436;5.978;2022-08-14T00:57:34;40.39;38.83;46.49;;
67314;Laerm;57663;51.436;5.978;2022-08-14T00:57:45;39.60;38.26;41.32;;
67314;Laerm;57663;51.436;5.978;2022-08-14T00:58:15;40.03;38.18;45.74;;
67314;Laerm;57663;51.436;5.978;2022-08-14T00:58:41;40.28;38.37;52.07;;
67314;Laerm;57663;51.436;5.978;2022-08-14T00:58:52;39.59;38.22;41.07;;
67314;Laerm;57663;51.436;5.978;2022-08-14T00:59:04;40.07;38.64;44.86;;
67314;Laerm;57663;51.436;5.978;2022-08-14T00:59:14;39.61;38.51;40.97;;
67314;Laerm;57663;51.436;5.978;2022-08-14T00:59:25;39.64;38.04;40.96;;
67314;Laerm;57663;51.436;5.978;2022-08-14T00:59:36;39.65;37.99;41.06;;
67314;Laerm;57663;51.436;5.978;2022-08-14T00:59:47;39.94;38.78;41.40;;
67314;Laerm;57663;51.436;5.978;2022-08-14T00:59:58;39.61;38.12;41.10;;
67314;Laerm;57663;51.436;5.978;2022-08-14T01:00:11;41.50;38.40;48.71;;
67314;Laerm;57663;51.436;5.978;2022-08-14T01:00:23;40.28;38.30;49.33;;
67314;Laerm;57663;51.436;5.978;2022-08-14T01:00:33;39.71;37.99;41.29;;
67314;Laerm;57663;51.436;5.978;2022-08-14T01:00:44;39.66;38.69;41.02;;
67314;Laerm;57663;51.436;5.978;2022-08-14T01:00:59;39.61;38.32;40.89;;
67314;Laerm;57663;51.436;5.978;2022-08-14T01:01:11;39.62;38.07;46.48;;
67314;Laerm;57663;51.436;5.978;2022-08-14T01:01:29;39.48;38.07;40.82;;
67314;Laerm;57663;51.436;5.978;2022-08-14T01:01:43;39.63;38.13;41.23;;
67314;Laerm;57663;51.436;5.978;2022-08-14T01:01:54;39.72;37.83;40.81;;
67314;Laerm;57663;51.436;5.978;2022-08-14T01:02:06;39.69;38.16;44.39;;
67314;Laerm;57663;51.436;5.978;2022-08-14T01:02:18;39.52;38.21;40.89;;
67314;Laerm;57663;51.436;5.978;2022-08-14T01:02:33;39.53;37.96;41.09;;
67314;Laerm;57663;51.436;5.978;2022-08-14T01:02:45;39.56;38.15;41.28;;